Albury
Weather
Information

and Archive.
Albury Local Internet Skycam This service provided and funded by Albury Local Internet

Help keep our weatherstation running:

Lavington Weatherstation live data - Conditions of Use

Last updated on 27-May-2019 at 23:05:04
Temperature
  Currently  8.0 degrees C
  Apparent Temperature ("Wind Chill") is 4.9 degrees C
  Today has ranged from  5.4 at 07:54 to 10.7 at 00:14
  Yesterday ranged from  8.7 at 07:23 to 13.6 at 14:12
Wind
  Now:   10.1kmh, gusting to  16.2kmh from 228 degrees ( SW)
  Hour:  12.1kmh, gusting to  18.7kmh
Rainfall
   0.2mm Midnight to Midnight (ie, yesterday)
   9.4mm Since Midnight (ie, so far today)
   9.4mm 9am yesterday to 9am today
  73.6mm Total this month
Misc items
  Relative humidity is 82%
  Dewpoint is 5.1 deg C
  Estimated Cloudbase is 1200 feet
  Barometric Pressure is 1016.0 mbar
  Solar Insolation: 0 W/m^2
  UV Index: 0.0 (Low)
Top Solar flares in the last 24 hours

Last 24 hours Temperature Graph (click graph for history)
temperature

Last 24 hours Dynamic Wind display (click image for 4-hour image):
Wind Rose

Current Yarrawonga Weather Radar and Infrared Satellite Images from the BOM.

Hourly summaries in the tables below are cumulative and peak values
for the preceding hour, and instantaneous values at the hour.
So far today, 27-May-2019
Time   Barom.  Wind + Gust    Direction   RH   Rain    Temp.  Minimum    Maximum
01:00  1011.0  19.5  35.3kmh  306 ( NW)   81%  0.0mm    9.8   9.5@00:49 10.7@00:14
02:00  1010.0  20.5  35.3kmh  315 ( NW)   81%  0.2mm    9.7   9.4@01:04  9.8@01:00
03:00  1008.0  21.8  37.4kmh  277 ( W )   93%  1.2mm    8.7   8.7@02:58 10.1@02:10
04:00  1009.0  20.7  40.0kmh  292 (WNW)   96%  4.4mm    7.0   7.1@03:53  8.7@03:00
05:00  1009.0  16.4  40.0kmh  243 (WSW)   95%  2.8mm    5.9   5.8@04:52  7.0@04:00
06:00  1009.0  14.8  24.8kmh  279 ( W )   94%  0.2mm    6.2   5.9@05:00  6.3@05:26
07:00  1009.0  17.1  32.0kmh  306 ( NW)   93%  0.0mm    6.8   6.2@06:00  6.8@06:27
08:00  1010.0  16.7  38.9kmh  229 ( SW)   91%  0.6mm    5.4   5.4@07:54  7.2@07:23
09:00  1010.0  13.4  23.8kmh  230 ( SW)   89%  0.0mm    6.6   5.4@08:00  6.7@08:37
10:00  1011.0  16.4  30.6kmh  238 (WSW)   83%  0.0mm    7.5   6.6@09:00  7.8@09:54
11:00  1011.0  16.6  31.3kmh  219 ( SW)   72%  0.0mm    8.0   7.3@10:12  8.5@10:51
12:00  1011.0  16.6  33.8kmh  245 (WSW)   68%  0.0mm    8.5   7.8@11:02  8.9@11:40
13:00  1011.0  17.3  39.2kmh  221 ( SW)   70%  0.0mm    8.4   8.2@12:42  8.9@12:51
14:00  1011.0  17.0  32.0kmh  218 ( SW)   68%  0.0mm    8.8   7.8@13:14  9.0@13:44
15:00  1012.0  15.6  32.0kmh  257 (WSW)   66%  0.0mm    9.1   8.8@14:00  9.9@14:14
16:00  1012.0  14.1  25.6kmh  228 ( SW)   63%  0.0mm    9.4   8.9@15:22  9.8@15:51
17:00  1013.0  15.5  32.4kmh  240 (WSW)   69%  0.0mm    8.8   8.8@16:59  9.4@16:00
18:00  1013.0  14.5  32.4kmh  281 ( W )   72%  0.0mm    8.6   8.5@17:58  8.9@17:38
19:00  1014.0  15.6  28.4kmh  257 (WSW)   74%  0.0mm    8.6   8.2@18:27  8.8@18:48
20:00  1014.0  16.2  29.9kmh  273 ( W )   75%  0.0mm    8.4   8.1@19:28  8.6@19:00
21:00  1015.0  16.8  31.3kmh  253 (WSW)   80%  0.0mm    8.3   8.3@20:26  8.5@20:09
22:00  1015.0  14.3  29.2kmh  261 ( W )   80%  0.0mm    8.2   8.2@21:16  8.5@21:05
23:00  1016.0  11.5  24.8kmh  229 ( SW)   82%  0.0mm    8.0   7.9@22:21  8.2@22:00
23:05  1016.0  12.1  18.7kmh  259 ( W )   82%  0.0mm    8.0   7.9@23:01  8.0@23:00


Summary for yesterday, 26-May-2019
Time   Barom.  Wind + Gust    Direction   RH   Rain    Temp.  Minimum    Maximum
01:00  1014.0  12.3  23.8kmh  219 ( SW)   81%  0.0mm   12.4  12.2@00:49 13.4@00:00
02:00  1014.0   9.3  20.2kmh  201 (SSW)   83%  0.0mm   12.0  12.0@01:59 12.4@01:00
03:00  1014.0   9.4  19.4kmh  249 (WSW)   92%  0.0mm   11.1  10.8@02:38 12.0@02:00
04:00  1014.0  11.2  20.9kmh  254 (WSW)   92%  0.2mm   10.8  10.7@03:48 11.3@03:21
05:00  1015.0  12.7  22.3kmh  265 ( W )   90%  0.0mm   10.4  10.5@04:58 10.8@04:00
06:00  1015.0  11.7  21.6kmh  270 ( W )   89%  0.0mm    9.9   9.7@05:33 10.7@05:06
07:00  1016.0  10.6  20.2kmh  260 ( W )   90%  0.0mm    9.1   9.1@06:34  9.9@06:00
08:00  1016.0   9.1  16.2kmh  277 ( W )   91%  0.0mm    9.1   8.7@07:23  9.1@07:00
09:00  1017.0  10.6  18.0kmh  257 (WSW)   84%  0.0mm   10.1   9.1@08:00 10.2@08:56
10:00  1017.0   9.3  16.9kmh  296 (WNW)   76%  0.0mm   10.3  10.1@09:00 11.0@09:47
11:00  1017.0  11.6  23.0kmh  286 (WNW)   71%  0.0mm   11.2  10.0@10:40 11.5@10:58
12:00  1017.0  11.2  20.9kmh  288 (WNW)   69%  0.0mm   11.5  10.7@11:52 12.1@11:45
13:00  1016.0  11.1  22.3kmh  196 (SSW)   61%  0.0mm   12.2  11.5@12:00 13.0@12:47
14:00  1015.0  10.7  18.7kmh  277 ( W )   56%  0.0mm   12.8  11.8@13:09 13.4@13:31
15:00  1015.0   9.7  18.7kmh  305 ( NW)   52%  0.0mm   13.2  11.9@14:34 13.6@14:12
16:00  1015.0  10.1  16.2kmh  286 (WNW)   56%  0.0mm   12.2  11.9@15:56 13.5@15:13
17:00  1015.0   7.4  14.8kmh  311 ( NW)   60%  0.0mm   10.7  10.6@16:53 12.2@16:00
18:00  1015.0   5.2  11.9kmh  316 ( NW)   61%  0.0mm   10.4  10.1@17:40 10.9@17:01
19:00  1015.0   8.9  11.9kmh  307 ( NW)   60%  0.0mm   10.8  10.4@18:00 10.9@18:20
20:00  1015.0  10.1  14.8kmh  328 (NNW)   61%  0.0mm   10.6  10.7@19:01 11.1@19:27
21:00  1015.0  12.7  22.3kmh  330 (NNW)   63%  0.0mm   10.7  10.6@20:00 10.9@20:21
22:00  1014.0  14.9  24.8kmh  316 ( NW)   65%  0.0mm   10.7  10.6@21:22 10.7@21:00
23:00  1013.0  15.6  25.6kmh  323 ( NW)   71%  0.0mm   10.2  10.2@22:51 10.8@22:24
00:00  1012.0  14.8  29.2kmh  351 ( N )   71%  0.0mm   10.4  10.1@23:04 10.4@23:03